Vadito, NM

2:47 AM MDT on October 01, 2014 (GMT -0600)
Bell Mountain Ranch | Change Station
CLOSE
Current Station
Personal Weather Station
Location: Vadito, NM
Elevation: 7660 ft
Nearby Weather Stations

Elev 7660 ft 36.19 °N, 105.66 °W | Updated 2 minutes ago

Clear
Clear
33.4 °F
Feels Like 26 °F
N
8.3
Wind Variable Wind from East
Gusts 9.8 mph

Today
High -- | Low -- °F
--% Chance of Precip.
Yesterday
High -- | Low -- °F
Precip. -- in
6:57 AM 6:46 PM
Waxing Crescent, 45% visible
Pressure 30.05 in
Visibility 10.0 miles
Clouds Clear
Windchill 26 °F
Dew Point 31 °F
Humidity 92%
Rainfall 0.00 in
Snow Depth Not available.
UV 0 out of 12
Pollen 5.80 out of 12
Air Quality Not available.
Flu Activity Not available.
METAR KSKX 010835Z AUTO 03004KT 10SM CLR 02/M02 A3005 RMK AO1

More Conditions Fewer Conditions

Pressure 30.05 in
Visibility 10.0 miles
Clouds Clear
Windchill 26 °F
Dew Point 31 °F
Humidity 92%
Rainfall 0.00 in
Snow Depth Not available.
UV 0 out of 12
Pollen 5.80 out of 12
Air Quality Not available.
Flu Activity Not available.
METAR KSKX 010835Z AUTO 03004KT 10SM CLR 02/M02 A3005 RMK AO1

More Conditions Fewer Conditions

10-Day Weather Forecast

Almanac

Astronomy

Oct. 01, 2014 Rise Set
Actual Time 6:57 AM MDT 6:46 PM MDT
Civil Twilight 6:32 AM MDT 7:11 PM MDT
Nautical Twilight 6:02 AM MDT 7:41 PM MDT
Astronomical Twilight 5:32 AM MDT 8:11 PM MDT
Moon 1:53 PM MDT No Moon Set
Length of Visible Light 12h 39m
Length of Day
11h 48m
Tomorrow will be 2m 16s shorter.
Waxing Crescent, 45% of the Moon is Illuminated
Today
Waxing Crescent
Oct 1
First Quarter
Oct 8
Full
Oct 15
Last Quarter
Oct 23
New

Today's Extremes

State Highs State Lows

Community

WunderPhotos

Upload Photos

1,757,902 photos uploaded!

Nearby

Snow Depth

Station Depth Elevation
Tolby 1 in 10180 ft
North Costilla 1 in 10600 ft
Wesner Springs 3 in 11120 ft
Silver Creek Divide 19 in 9000 ft
Signal Peak 1 in 8360 ft

Earthquake Activity

City Distance Mag. Time & Date
Trinidad, Colorado 72 miles 2.9 3:55 AM MDT
2014-09-30
Minimum magnitude displayed is 2.5.

Coastal Water Temperatures

Place Temperature
No Stations Reporting

Nearby Weather Stations